createdAt,value
2022-10-18T00:00:07.684Z,87.74
2022-10-18T00:02:38.025Z,86.93
2022-10-18T00:05:05.434Z,88.19
2022-10-18T00:07:32.763Z,88.52
2022-10-18T00:09:59.902Z,88.98
2022-10-18T00:12:26.984Z,88.43
2022-10-18T00:14:53.864Z,88.89
2022-10-18T00:17:20.847Z,89.22
2022-10-18T00:19:49.293Z,89.04
2022-10-18T00:22:16.173Z,88.08
2022-10-18T00:24:43.079Z,87.84
2022-10-18T00:27:09.983Z,88.05
2022-10-18T00:29:36.930Z,88.09
2022-10-18T00:32:04.053Z,88.01
2022-10-18T00:34:31.034Z,87.35
2022-10-18T00:36:57.890Z,87.59
2022-10-18T00:39:25.055Z,87.73
2022-10-18T00:41:52.058Z,88.02
2022-10-18T00:44:18.880Z,88.76
2022-10-18T00:46:49.446Z,88.07
2022-10-18T00:49:27.590Z,87.66
2022-10-18T00:52:04.429Z,87.34
2022-10-18T00:54:34.797Z,88.11
2022-10-18T00:57:02.758Z,86.13
2022-10-18T00:59:30.136Z,86.07
2022-10-18T01:01:57.149Z,86.01
2022-10-18T01:04:24.282Z,85.93
2022-10-18T01:07:20.660Z,86.56
2022-10-18T01:10:10.376Z,86.54
2022-10-18T01:12:57.705Z,86.89
2022-10-18T01:15:29.393Z,86.00
2022-10-18T01:18:27.788Z,85.53
2022-10-18T01:21:03.552Z,86.58
2022-10-18T01:23:57.787Z,85.96
2022-10-18T01:26:46.168Z,86.60
2022-10-18T01:29:28.096Z,86.46
2022-10-18T01:32:02.517Z,85.75
2022-10-18T01:34:34.092Z,86.61
2022-10-18T01:37:05.168Z,85.21
2022-10-18T01:39:36.651Z,86.03
2022-10-18T01:42:09.076Z,87.13
2022-10-18T01:44:39.281Z,86.66
2022-10-18T01:47:09.558Z,86.06
2022-10-18T01:49:36.427Z,85.67
2022-10-18T01:52:03.421Z,85.81
2022-10-18T01:54:35.163Z,86.23
2022-10-18T01:57:24.225Z,84.12
2022-10-18T02:00:05.459Z,81.59
2022-10-18T02:03:13.908Z,80.33
2022-10-18T02:06:06.624Z,80.38
2022-10-18T02:08:59.815Z,79.38
2022-10-18T02:11:29.558Z,82.99
2022-10-18T02:14:26.010Z,85.91
2022-10-18T02:16:57.075Z,87.40
2022-10-18T02:19:27.042Z,87.64
2022-10-18T02:21:55.901Z,86.47
2022-10-18T02:24:26.063Z,83.42
2022-10-18T02:26:53.116Z,80.76
2022-10-18T02:29:20.263Z,81.55
2022-10-18T02:31:50.203Z,81.90
2022-10-18T02:34:21.886Z,84.38
2022-10-18T02:36:54.169Z,85.26
2022-10-18T02:39:30.332Z,85.35
2022-10-18T02:41:58.561Z,85.69
2022-10-18T02:44:25.704Z,86.18
2022-10-18T02:46:53.511Z,84.59
2022-10-18T02:49:20.413Z,85.07
2022-10-18T02:51:47.294Z,85.60
2022-10-18T02:54:14.157Z,86.54
2022-10-18T02:56:41.118Z,86.52
2022-10-18T02:59:08.346Z,86.13
2022-10-18T03:01:36.387Z,84.91
2022-10-18T03:04:04.913Z,82.88
2022-10-18T03:06:32.830Z,82.61
2022-10-18T03:08:59.832Z,83.54
2022-10-18T03:11:26.693Z,85.46
2022-10-18T03:13:53.583Z,86.55
2022-10-18T03:16:20.649Z,87.15
2022-10-18T03:18:47.550Z,87.80
2022-10-18T03:21:14.438Z,85.74
2022-10-18T03:23:42.421Z,85.90
2022-10-18T03:26:09.825Z,84.64
2022-10-18T03:28:36.897Z,85.03
2022-10-18T03:31:05.290Z,83.95
2022-10-18T03:33:33.230Z,86.09
2022-10-18T03:36:00.130Z,86.47
2022-10-18T03:38:27.030Z,85.85
2022-10-18T03:40:53.984Z,85.06
2022-10-18T03:43:20.885Z,84.92
2022-10-18T03:45:47.765Z,84.69
2022-10-18T03:48:14.906Z,83.52
2022-10-18T03:50:43.004Z,84.45
2022-10-18T03:53:10.572Z,84.56
2022-10-18T03:55:37.872Z,86.57
2022-10-18T03:58:05.413Z,85.42
2022-10-18T04:00:32.396Z,87.12
2022-10-18T04:02:59.323Z,88.59
2022-10-18T04:05:28.297Z,88.25
2022-10-18T04:07:55.401Z,89.13
2022-10-18T04:10:22.547Z,88.09
2022-10-18T04:12:49.392Z,88.66
2022-10-18T04:15:16.559Z,90.03
2022-10-18T04:17:43.394Z,90.15
2022-10-18T04:20:10.687Z,89.06
2022-10-18T04:22:37.562Z,88.39
2022-10-18T04:25:05.458Z,89.04
2022-10-18T04:27:32.539Z,88.57
2022-10-18T04:29:59.696Z,86.95
2022-10-18T04:32:28.831Z,86.03
2022-10-18T04:34:55.718Z,84.24
2022-10-18T04:37:22.777Z,83.65
2022-10-18T04:39:53.452Z,81.79
2022-10-18T04:42:21.853Z,78.17
2022-10-18T04:44:48.948Z,76.75
2022-10-18T04:47:16.766Z,77.84
2022-10-18T04:49:44.099Z,78.60
2022-10-18T04:52:12.074Z,78.18
2022-10-18T04:54:38.991Z,77.75
2022-10-18T04:57:05.950Z,76.09
2022-10-18T04:59:32.842Z,70.48
2022-10-18T05:01:59.873Z,64.79
2022-10-18T05:04:26.958Z,60.18
2022-10-18T05:06:53.822Z,57.23
2022-10-18T05:09:24.667Z,50.65
2022-10-18T05:11:51.749Z,48.66
2022-10-18T05:14:18.847Z,47.21
2022-10-18T05:16:45.765Z,45.40
2022-10-18T05:19:12.657Z,44.28
2022-10-18T05:21:39.689Z,41.86
2022-10-18T05:24:06.730Z,39.68
2022-10-18T05:26:33.671Z,40.57
2022-10-18T05:29:00.752Z,39.35
2022-10-18T05:31:27.802Z,40.48
2022-10-18T05:33:54.750Z,40.59
2022-10-18T05:36:21.690Z,39.50
2022-10-18T05:38:48.691Z,38.71
2022-10-18T05:41:15.565Z,37.46
2022-10-18T05:43:42.786Z,34.96
2022-10-18T05:46:14.779Z,33.21
2022-10-18T05:48:44.200Z,33.42
2022-10-18T05:51:11.807Z,32.00
2022-10-18T05:53:38.862Z,33.76
2022-10-18T05:56:07.237Z,34.86
2022-10-18T05:58:35.009Z,37.52
2022-10-18T06:01:02.873Z,39.30
2022-10-18T06:03:33.428Z,37.67
2022-10-18T06:06:06.318Z,34.98
2022-10-18T06:08:34.241Z,35.68
2022-10-18T06:11:16.040Z,33.56
2022-10-18T06:13:48.242Z,32.67
2022-10-18T06:16:17.403Z,34.00
2022-10-18T06:18:48.835Z,32.69
2022-10-18T06:21:16.621Z,31.57
2022-10-18T06:23:43.508Z,32.13
2022-10-18T06:26:11.809Z,31.30
2022-10-18T06:28:39.209Z,31.46
2022-10-18T06:31:06.678Z,31.96
2022-10-18T06:33:35.360Z,32.22
2022-10-18T06:36:05.650Z,32.15
2022-10-18T06:38:33.062Z,30.85
2022-10-18T06:41:00.550Z,28.46
2022-10-18T06:43:27.542Z,27.59
2022-10-18T06:45:54.824Z,30.15
2022-10-18T06:48:22.735Z,29.49
2022-10-18T06:50:53.835Z,31.13
2022-10-18T06:53:20.820Z,31.67
2022-10-18T06:55:47.782Z,34.02
2022-10-18T06:58:15.121Z,34.75
2022-10-18T07:00:42.054Z,33.35
2022-10-18T07:03:08.921Z,34.84
2022-10-18T07:05:36.063Z,35.79
2022-10-18T07:08:03.217Z,37.49
2022-10-18T07:10:30.190Z,44.22
2022-10-18T07:13:13.727Z,45.05
2022-10-18T07:15:43.945Z,46.34
2022-10-18T07:18:11.044Z,47.12
2022-10-18T07:20:38.139Z,49.40
2022-10-18T07:23:08.510Z,48.92
2022-10-18T07:25:36.185Z,47.23
2022-10-18T07:28:03.199Z,44.01
2022-10-18T07:30:30.130Z,40.41
2022-10-18T07:32:57.118Z,36.92
2022-10-18T07:35:24.028Z,39.40
2022-10-18T07:37:50.935Z,42.00
2022-10-18T07:40:17.941Z,40.31
2022-10-18T07:42:44.828Z,40.46
2022-10-18T07:45:12.801Z,38.52
2022-10-18T07:47:40.267Z,37.40
2022-10-18T07:50:07.939Z,39.58
2022-10-18T07:52:34.807Z,43.53
2022-10-18T07:55:01.672Z,40.86
2022-10-18T07:57:28.644Z,41.87
2022-10-18T07:59:57.183Z,48.68
2022-10-18T08:02:24.410Z,44.20
2022-10-18T08:04:51.551Z,42.13
2022-10-18T08:07:18.535Z,41.82
2022-10-18T08:09:45.421Z,42.17
2022-10-18T08:12:12.306Z,45.57
2022-10-18T08:14:39.333Z,49.57
2022-10-18T08:17:06.241Z,48.34
2022-10-18T08:19:33.141Z,49.43
2022-10-18T08:22:00.048Z,47.86
2022-10-18T08:24:26.949Z,48.77
2022-10-18T08:26:53.837Z,48.58
2022-10-18T08:29:24.095Z,48.44
2022-10-18T08:31:52.856Z,47.08
2022-10-18T08:34:20.144Z,47.46
2022-10-18T08:36:47.161Z,48.07
2022-10-18T08:39:14.029Z,48.24
2022-10-18T08:42:25.888Z,48.28
2022-10-18T08:44:53.974Z,47.69
2022-10-18T08:47:42.970Z,49.43
2022-10-18T08:50:19.780Z,46.99
2022-10-18T08:52:49.903Z,43.82
2022-10-18T08:55:38.827Z,43.16
2022-10-18T08:58:20.750Z,42.70
2022-10-18T09:01:05.616Z,40.61
2022-10-18T09:04:00.455Z,41.94
2022-10-18T09:06:50.121Z,38.29
2022-10-18T09:09:17.216Z,40.42
2022-10-18T09:12:01.908Z,43.11
2022-10-18T09:14:29.146Z,43.33
2022-10-18T09:17:23.521Z,46.78
2022-10-18T09:20:09.534Z,47.14
2022-10-18T09:23:03.330Z,48.10
2022-10-18T09:25:46.347Z,45.38
2022-10-18T09:28:40.647Z,44.23
2022-10-18T09:31:13.574Z,44.77
2022-10-18T09:34:02.138Z,44.79
2022-10-18T09:36:37.311Z,42.63
2022-10-18T09:39:22.660Z,37.67
2022-10-18T09:41:55.289Z,36.78
2022-10-18T09:44:33.756Z,35.39
2022-10-18T09:47:05.836Z,33.22
2022-10-18T09:49:46.834Z,31.38
2022-10-18T09:52:23.812Z,31.32
2022-10-18T09:54:56.169Z,33.43
2022-10-18T09:57:57.459Z,40.02
2022-10-18T10:00:35.181Z,43.14
2022-10-18T10:03:07.273Z,43.62
2022-10-18T10:05:34.190Z,41.64
2022-10-18T10:08:02.976Z,38.85
2022-10-18T10:10:31.437Z,35.73
2022-10-18T10:13:23.232Z,36.18
2022-10-18T10:16:00.342Z,37.36
2022-10-18T10:18:54.456Z,41.13
2022-10-18T10:21:22.430Z,39.81
2022-10-18T10:23:57.928Z,35.30
2022-10-18T10:26:29.014Z,33.54
2022-10-18T10:28:56.289Z,32.93
2022-10-18T10:31:34.177Z,38.06
2022-10-18T10:34:14.458Z,37.42
2022-10-18T10:36:51.218Z,34.38
2022-10-18T10:39:20.590Z,31.04
2022-10-18T10:41:51.865Z,28.41
2022-10-18T10:44:23.475Z,27.78
2022-10-18T10:46:54.943Z,30.63
2022-10-18T10:49:45.498Z,30.83
2022-10-18T10:52:26.990Z,29.55
2022-10-18T10:55:05.744Z,29.09
2022-10-18T10:57:38.840Z,29.97
2022-10-18T11:00:06.113Z,30.14
2022-10-18T11:02:35.522Z,29.94
2022-10-18T11:05:27.046Z,29.99
2022-10-18T11:07:58.779Z,27.32
2022-10-18T11:10:31.147Z,29.51
2022-10-18T11:13:18.572Z,31.42
2022-10-18T11:15:50.707Z,32.37
2022-10-18T11:18:24.062Z,31.17
2022-10-18T11:21:01.417Z,30.31
2022-10-18T11:23:32.638Z,32.21
2022-10-18T11:26:17.680Z,31.22
2022-10-18T11:29:17.937Z,30.15
2022-10-18T11:32:03.494Z,35.56
2022-10-18T11:34:53.482Z,35.69
2022-10-18T11:37:29.438Z,36.57
2022-10-18T11:40:22.765Z,34.98
2022-10-18T11:43:14.087Z,32.71
2022-10-18T11:46:18.110Z,33.32
2022-10-18T11:49:15.142Z,32.71
2022-10-18T11:52:08.747Z,31.25
2022-10-18T11:54:43.111Z,31.62
2022-10-18T11:57:48.689Z,35.84
2022-10-18T12:00:18.593Z,35.49
2022-10-18T12:03:00.655Z,37.98
2022-10-18T12:05:30.086Z,35.43
2022-10-18T12:07:59.295Z,38.83
2022-10-18T12:10:44.135Z,37.53
2022-10-18T12:13:35.818Z,41.16
2022-10-18T12:16:05.347Z,40.03
2022-10-18T12:18:33.661Z,44.94
2022-10-18T12:21:02.039Z,44.84
2022-10-18T12:23:35.074Z,45.47
2022-10-18T12:26:07.527Z,47.85
2022-10-18T12:28:59.794Z,52.56
2022-10-18T12:31:34.490Z,55.73
2022-10-18T12:34:13.491Z,52.39
2022-10-18T12:36:54.880Z,53.49
2022-10-18T12:39:43.326Z,57.66
2022-10-18T12:42:24.257Z,59.83
2022-10-18T12:45:06.361Z,53.49
2022-10-18T12:47:33.870Z,50.99
2022-10-18T12:50:04.862Z,50.49
2022-10-18T12:52:37.255Z,48.00
2022-10-18T12:55:19.511Z,49.72
2022-10-18T12:57:52.253Z,48.82
2022-10-18T13:00:31.466Z,48.25
2022-10-18T13:03:11.644Z,49.45
2022-10-18T13:05:55.886Z,48.88
2022-10-18T13:08:29.378Z,53.41
2022-10-18T13:11:02.052Z,53.85
2022-10-18T13:13:40.155Z,52.22
2022-10-18T13:16:28.988Z,52.71
2022-10-18T13:18:57.810Z,50.83
2022-10-18T13:21:35.377Z,49.18
2022-10-18T13:24:20.418Z,50.62
2022-10-18T13:27:04.058Z,52.21
2022-10-18T13:30:02.082Z,54.49
2022-10-18T13:32:48.377Z,55.99
2022-10-18T13:35:49.250Z,55.04
2022-10-18T13:38:42.375Z,56.05
2022-10-18T13:41:21.583Z,55.65
2022-10-18T13:44:10.448Z,56.38
2022-10-18T13:46:37.522Z,56.73
2022-10-18T13:49:35.069Z,58.08
2022-10-18T13:52:13.935Z,59.15
2022-10-18T13:55:02.203Z,60.28
2022-10-18T13:58:10.009Z,59.20
2022-10-18T14:00:37.014Z,60.25
2022-10-18T14:03:31.604Z,60.81
2022-10-18T14:06:25.484Z,61.02
2022-10-18T14:09:45.605Z,61.89
2022-10-18T14:12:46.086Z,61.12
2022-10-18T14:15:35.713Z,62.43
2022-10-18T14:18:12.732Z,61.50
2022-10-18T14:21:01.484Z,63.19
2022-10-18T14:23:38.011Z,63.24
2022-10-18T14:26:13.771Z,63.67
2022-10-18T14:28:59.109Z,64.17
2022-10-18T14:31:27.452Z,64.50
2022-10-18T14:33:57.945Z,64.70
2022-10-18T14:36:39.863Z,65.25
2022-10-18T14:39:16.977Z,66.06
2022-10-18T14:42:19.806Z,66.31
2022-10-18T14:44:54.201Z,67.71
2022-10-18T14:47:31.343Z,69.16
2022-10-18T14:50:00.205Z,70.22
2022-10-18T14:52:35.490Z,70.39
2022-10-18T14:55:03.706Z,71.23
2022-10-18T14:57:34.316Z,71.88
2022-10-18T15:00:08.111Z,71.51
2022-10-18T15:02:39.557Z,72.23
2022-10-18T15:05:23.859Z,73.04
2022-10-18T15:07:54.267Z,73.47
2022-10-18T15:10:29.471Z,74.28
2022-10-18T15:13:09.920Z,74.19
2022-10-18T15:15:39.767Z,73.72
2022-10-18T15:18:08.575Z,72.88
2022-10-18T15:20:42.864Z,73.53
2022-10-18T15:23:24.161Z,72.12
2022-10-18T15:26:00.011Z,72.64
2022-10-18T15:28:33.865Z,72.54
2022-10-18T15:31:02.400Z,73.15
2022-10-18T15:33:34.908Z,72.84
2022-10-18T15:36:18.873Z,74.15
2022-10-18T15:38:49.201Z,75.06
2022-10-18T15:41:36.584Z,75.54
2022-10-18T15:44:13.148Z,76.54
2022-10-18T15:49:24.848Z,74.91
2022-10-18T15:52:03.939Z,75.01
2022-10-18T15:54:31.353Z,74.70
2022-10-18T15:56:58.478Z,73.58
2022-10-18T15:59:30.902Z,73.31
2022-10-18T16:01:58.338Z,72.28
2022-10-18T16:04:28.361Z,72.16
2022-10-18T16:06:57.133Z,73.25
2022-10-18T16:09:26.779Z,72.60
2022-10-18T16:11:57.317Z,71.10
2022-10-18T16:14:26.379Z,73.63
2022-10-18T16:16:56.614Z,74.26
2022-10-18T16:19:26.570Z,73.27
2022-10-18T16:21:54.718Z,72.62
2022-10-18T16:24:23.060Z,71.62
2022-10-18T16:26:59.444Z,70.54
2022-10-18T16:29:28.796Z,73.30
2022-10-18T16:31:58.369Z,72.81
2022-10-18T16:34:29.343Z,72.62
2022-10-18T16:36:56.330Z,71.29
2022-10-18T16:39:24.505Z,74.40
2022-10-18T16:41:51.798Z,73.45
2022-10-18T16:44:19.388Z,73.51
2022-10-18T16:46:50.996Z,74.60
2022-10-18T16:49:26.314Z,74.55
2022-10-18T16:51:54.408Z,73.48
2022-10-18T16:54:22.404Z,73.87
2022-10-18T16:56:50.266Z,73.99
2022-10-18T16:59:35.172Z,73.19
2022-10-18T17:02:05.762Z,72.95
2022-10-18T17:04:32.786Z,72.94
2022-10-18T17:06:59.952Z,73.58
2022-10-18T17:09:26.903Z,73.34
2022-10-18T17:11:54.139Z,72.58
2022-10-18T17:14:21.079Z,73.89
2022-10-18T17:16:50.833Z,72.14
2022-10-18T17:19:21.882Z,72.98
2022-10-18T17:21:48.832Z,74.35
2022-10-18T17:24:15.771Z,75.47
2022-10-18T17:26:42.761Z,76.67
2022-10-18T17:29:10.070Z,78.82
2022-10-18T17:31:37.402Z,78.12
2022-10-18T17:34:04.689Z,78.45
2022-10-18T17:36:33.212Z,79.30
2022-10-18T17:39:00.420Z,79.56
2022-10-18T17:41:27.499Z,78.45
2022-10-18T17:43:54.499Z,78.32
2022-10-18T17:46:21.595Z,79.06
2022-10-18T17:48:48.633Z,77.86
2022-10-18T17:51:17.361Z,77.17
2022-10-18T17:53:44.784Z,77.27
2022-10-18T17:56:12.494Z,77.07
2022-10-18T17:58:39.731Z,77.34
2022-10-18T18:01:22.260Z,79.44
2022-10-18T18:03:49.624Z,78.40
2022-10-18T18:06:31.357Z,78.31
2022-10-18T18:08:59.698Z,78.23
2022-10-18T18:11:27.735Z,79.51
2022-10-18T18:13:56.224Z,79.46
2022-10-18T18:16:25.767Z,77.64
2022-10-18T18:18:54.722Z,77.60
2022-10-18T18:21:22.618Z,76.87
2022-10-18T18:23:50.363Z,76.49
2022-10-18T18:26:19.559Z,77.23
2022-10-18T18:28:46.752Z,77.88
2022-10-18T18:31:16.882Z,77.92
2022-10-18T18:33:44.615Z,77.50
2022-10-18T18:36:12.682Z,76.89
2022-10-18T18:38:42.844Z,77.27
2022-10-18T18:41:19.132Z,77.54
2022-10-18T18:43:51.357Z,76.85
2022-10-18T18:46:18.644Z,76.80
2022-10-18T18:48:45.848Z,77.66
2022-10-18T18:51:17.895Z,78.66
2022-10-18T18:53:46.994Z,80.66
2022-10-18T18:58:52.926Z,80.77
2022-10-18T19:01:22.699Z,77.98
2022-10-18T19:03:53.663Z,77.27
2022-10-18T19:06:32.639Z,76.88
2022-10-18T19:09:03.491Z,77.97
2022-10-18T19:11:33.689Z,78.73
2022-10-18T19:14:01.162Z,79.55
2022-10-18T19:16:29.635Z,77.66
2022-10-18T19:19:10.438Z,76.77
2022-10-18T19:21:40.929Z,78.28
2022-10-18T19:24:08.272Z,78.94
2022-10-18T19:26:44.833Z,80.95
2022-10-18T19:29:18.053Z,77.26
2022-10-18T19:31:45.677Z,78.88
2022-10-18T19:34:14.454Z,79.80
2022-10-18T19:36:43.655Z,81.03
2022-10-18T19:39:18.478Z,81.48
2022-10-18T19:41:50.737Z,82.78
2022-10-18T19:44:19.331Z,82.49
2022-10-18T19:46:46.907Z,83.52
2022-10-18T19:49:14.451Z,83.60
2022-10-18T19:51:42.093Z,83.01
2022-10-18T19:54:11.539Z,84.66
2022-10-18T19:56:38.692Z,83.81
2022-10-18T19:59:05.600Z,81.53
2022-10-18T20:01:32.627Z,81.28
2022-10-18T20:03:59.785Z,80.93
2022-10-18T20:06:26.844Z,80.64
2022-10-18T20:08:53.820Z,78.55
2022-10-18T20:11:23.110Z,81.59
2022-10-18T20:13:50.767Z,80.47
2022-10-18T20:16:20.658Z,80.11
2022-10-18T20:18:54.428Z,78.79
2022-10-18T20:21:21.426Z,78.38
2022-10-18T20:23:48.327Z,81.79
2022-10-18T20:26:20.432Z,81.23
2022-10-18T20:28:49.544Z,79.04
2022-10-18T20:31:19.021Z,80.54
2022-10-18T20:33:47.746Z,84.18
2022-10-18T20:36:17.950Z,82.75
2022-10-18T20:38:47.362Z,84.64
2022-10-18T20:41:14.300Z,85.19
2022-10-18T20:43:41.583Z,87.69
2022-10-18T20:46:09.077Z,88.82
2022-10-18T20:48:37.031Z,90.69
2022-10-18T20:51:09.925Z,90.49
2022-10-18T20:53:37.552Z,87.38
2022-10-18T20:56:07.659Z,83.45
2022-10-18T20:58:35.627Z,84.10
2022-10-18T21:01:29.327Z,83.61
2022-10-18T21:03:58.397Z,83.04
2022-10-18T21:06:26.429Z,82.90
2022-10-18T21:09:01.972Z,84.22
2022-10-18T21:11:31.237Z,87.79
2022-10-18T21:14:02.642Z,89.46
2022-10-18T21:16:31.266Z,92.54
2022-10-18T21:19:25.445Z,91.50
2022-10-18T21:21:56.100Z,90.65
2022-10-18T21:24:24.807Z,88.66
2022-10-18T21:26:52.010Z,88.88
2022-10-18T21:29:22.231Z,89.27
2022-10-18T21:31:49.642Z,86.43
2022-10-18T21:34:17.579Z,85.85
2022-10-18T21:36:46.635Z,85.21
2022-10-18T21:39:16.745Z,85.27
2022-10-18T21:41:44.131Z,85.04
2022-10-18T21:44:11.678Z,84.73
2022-10-18T21:46:39.589Z,85.58
2022-10-18T21:49:07.946Z,83.87
2022-10-18T21:51:35.379Z,83.43
2022-10-18T21:54:02.271Z,83.15
2022-10-18T21:56:32.987Z,88.95
2022-10-18T21:59:00.577Z,90.97
2022-10-18T22:01:35.576Z,91.96
2022-10-18T22:04:04.715Z,90.84
2022-10-18T22:09:08.553Z,91.14
2022-10-18T22:11:40.209Z,91.66
2022-10-18T22:14:07.322Z,90.73
2022-10-18T22:16:34.227Z,89.34
2022-10-18T22:19:03.419Z,89.47
2022-10-18T22:21:30.661Z,89.84
2022-10-18T22:23:58.434Z,86.48
2022-10-18T22:26:30.504Z,87.13
2022-10-18T22:29:03.063Z,85.52
2022-10-18T22:31:33.041Z,86.10
2022-10-18T22:34:03.322Z,87.15
2022-10-18T22:36:31.011Z,88.85
2022-10-18T22:38:58.119Z,86.95
2022-10-18T22:41:25.103Z,86.17
2022-10-18T22:43:52.391Z,84.77
2022-10-18T22:46:20.402Z,84.48
2022-10-18T22:48:47.518Z,85.17
2022-10-18T22:51:14.709Z,86.87
2022-10-18T22:53:42.017Z,87.82
2022-10-18T22:56:13.263Z,89.20
2022-10-18T22:58:40.276Z,92.61
2022-10-18T23:01:10.987Z,93.36
2022-10-18T23:03:38.638Z,92.86
2022-10-18T23:06:17.250Z,91.71
2022-10-18T23:08:44.221Z,92.60
2022-10-18T23:11:11.164Z,93.63
2022-10-18T23:13:39.630Z,94.26
2022-10-18T23:16:07.100Z,94.88
2022-10-18T23:18:34.139Z,97.16
2022-10-18T23:21:09.047Z,100.00
2022-10-18T23:23:37.936Z,99.75
2022-10-18T23:26:07.040Z,98.47
2022-10-18T23:28:36.141Z,98.97
2022-10-18T23:31:12.751Z,98.01
2022-10-18T23:33:41.214Z,98.28
2022-10-18T23:36:09.403Z,98.49
2022-10-18T23:38:37.642Z,98.11
2022-10-18T23:41:09.078Z,99.04
2022-10-18T23:43:36.437Z,98.94
2022-10-18T23:46:03.838Z,98.16
2022-10-18T23:48:31.212Z,98.13
2022-10-18T23:50:58.085Z,96.70
2022-10-18T23:53:24.992Z,95.21
2022-10-18T23:55:55.913Z,94.03
2022-10-18T23:58:23.898Z,94.22
